createdAt,value
2024-03-12T00:01:10.070Z,100083.13
2024-03-12T00:03:44.223Z,100091.78
2024-03-12T00:06:11.808Z,100089.19
2024-03-12T00:08:40.777Z,100096.16
2024-03-12T00:11:09.201Z,100095.31
2024-03-12T00:13:36.456Z,100100.44
2024-03-12T00:16:04.812Z,100096.16
2024-03-12T00:18:34.342Z,100094.47
2024-03-12T00:21:05.226Z,100106.59
2024-03-12T00:23:32.295Z,100105.69
2024-03-12T00:25:59.266Z,100099.47
2024-03-12T00:28:26.356Z,100100.22
2024-03-12T00:30:55.199Z,100095.75
2024-03-12T00:33:22.642Z,100095.59
2024-03-12T00:35:49.775Z,100095.44
2024-03-12T00:38:19.117Z,100097.13
2024-03-12T00:40:48.137Z,100091.84
2024-03-12T00:43:15.455Z,100099.63
2024-03-12T00:45:43.380Z,100096.97
2024-03-12T00:48:14.403Z,100096.03
2024-03-12T00:50:43.731Z,100095.25
2024-03-12T00:53:12.903Z,100109.00
2024-03-12T00:55:42.036Z,100102.09
2024-03-12T00:58:13.613Z,100105.59
2024-03-12T01:00:42.300Z,100113.41
2024-03-12T01:03:10.477Z,100109.09
2024-03-12T01:05:39.056Z,100117.69
2024-03-12T01:08:07.482Z,100127.28
2024-03-12T01:10:36.015Z,100129.03
2024-03-12T01:13:10.795Z,100133.41
2024-03-12T01:15:39.029Z,100117.69
2024-03-12T01:18:06.364Z,100128.22
2024-03-12T01:20:36.135Z,100129.09
2024-03-12T01:23:06.034Z,100117.75
2024-03-12T01:25:35.857Z,100122.94
2024-03-12T01:28:03.713Z,100119.41
2024-03-12T01:30:31.743Z,100114.25
2024-03-12T01:32:59.566Z,100118.59
2024-03-12T01:35:26.886Z,100114.25
2024-03-12T01:37:54.658Z,100113.34
2024-03-12T01:40:24.041Z,100112.63
2024-03-12T01:42:53.746Z,100116.06
2024-03-12T01:45:25.352Z,100116.94
2024-03-12T01:47:55.738Z,100112.63
2024-03-12T01:50:25.802Z,100116.13
2024-03-12T01:53:08.426Z,100122.31
2024-03-12T01:55:39.344Z,100130.16
2024-03-12T01:58:07.671Z,100124.91
2024-03-12T02:00:35.153Z,100127.59
2024-03-12T02:03:02.410Z,100122.41
2024-03-12T02:05:29.635Z,100118.13
2024-03-12T02:07:56.792Z,100128.56
2024-03-12T02:10:26.163Z,100135.53
2024-03-12T02:12:53.381Z,100144.16
2024-03-12T02:15:23.359Z,100148.59
2024-03-12T02:17:52.950Z,100139.91
2024-03-12T02:20:22.429Z,100148.66
2024-03-12T02:22:54.381Z,100147.81
2024-03-12T02:25:21.643Z,100153.00
2024-03-12T02:27:48.700Z,100146.00
2024-03-12T02:30:16.075Z,100150.31
2024-03-12T02:32:43.362Z,100155.50
2024-03-12T02:35:13.329Z,100149.50
2024-03-12T02:37:40.685Z,100149.44
2024-03-12T02:40:16.487Z,100165.03
2024-03-12T02:42:45.415Z,100155.50
2024-03-12T02:45:16.477Z,100165.84
2024-03-12T02:47:45.299Z,100168.41
2024-03-12T02:50:12.737Z,100170.13
2024-03-12T02:52:40.083Z,100178.81
2024-03-12T02:55:08.135Z,100171.81
2024-03-12T02:57:35.542Z,100177.09
2024-03-12T03:00:12.333Z,100175.25
2024-03-12T03:02:39.510Z,100186.53
2024-03-12T03:05:13.287Z,100184.84
2024-03-12T03:07:41.912Z,100182.19
2024-03-12T03:10:11.047Z,100182.16
2024-03-12T03:12:38.574Z,100192.59
2024-03-12T03:15:06.555Z,100197.72
2024-03-12T03:17:33.717Z,100184.69
2024-03-12T03:20:00.800Z,100192.38
2024-03-12T03:22:29.146Z,100198.50
2024-03-12T03:24:56.189Z,100196.72
2024-03-12T03:27:23.198Z,100202.81
2024-03-12T03:29:50.175Z,100208.03
2024-03-12T03:32:17.175Z,100203.75
2024-03-12T03:34:44.492Z,100213.28
2024-03-12T03:37:12.510Z,100202.84
2024-03-12T03:39:40.572Z,100199.34
2024-03-12T03:42:07.903Z,100209.75
2024-03-12T03:44:35.114Z,100204.53
2024-03-12T03:47:02.084Z,100213.16
2024-03-12T03:49:29.119Z,100213.22
2024-03-12T03:51:56.755Z,100203.59
2024-03-12T03:54:23.897Z,100217.44
2024-03-12T03:56:51.001Z,100210.50
2024-03-12T03:59:20.552Z,100209.59
2024-03-12T04:01:50.334Z,100221.75
2024-03-12T04:04:20.104Z,100215.72
2024-03-12T04:06:48.060Z,100220.97
2024-03-12T04:09:19.139Z,100235.81
2024-03-12T04:11:46.222Z,100231.44
2024-03-12T04:14:13.189Z,100236.63
2024-03-12T04:16:40.801Z,100232.28
2024-03-12T04:19:08.167Z,100247.16
2024-03-12T04:21:37.599Z,100245.41
2024-03-12T04:24:05.555Z,100239.31
2024-03-12T04:26:32.786Z,100221.97
2024-03-12T04:29:00.043Z,100229.81
2024-03-12T04:31:27.402Z,100231.53
2024-03-12T04:33:54.921Z,100242.91
2024-03-12T04:36:25.993Z,100262.81
2024-03-12T04:38:53.516Z,100254.94
2024-03-12T04:41:23.759Z,100262.88
2024-03-12T04:43:50.740Z,100263.69
2024-03-12T04:46:17.870Z,100259.41
2024-03-12T04:48:46.560Z,100258.50
2024-03-12T04:51:15.565Z,100272.34
2024-03-12T04:53:43.092Z,100272.41
2024-03-12T04:56:10.271Z,100272.41
2024-03-12T04:58:38.227Z,100270.59
2024-03-12T05:01:07.442Z,100277.63
2024-03-12T05:03:35.669Z,100284.53
2024-03-12T05:06:03.113Z,100281.94
2024-03-12T05:08:30.270Z,100281.03
2024-03-12T05:10:58.763Z,100297.53
2024-03-12T05:13:27.212Z,100303.75
2024-03-12T05:15:54.206Z,100292.41
2024-03-12T05:18:21.334Z,100302.81
2024-03-12T05:20:48.373Z,100313.19
2024-03-12T05:23:16.386Z,100312.31
2024-03-12T05:25:45.333Z,100315.81
2024-03-12T05:28:13.349Z,100328.03
2024-03-12T05:30:42.148Z,100315.81
2024-03-12T05:33:11.632Z,100327.19
2024-03-12T05:35:40.332Z,100330.66
2024-03-12T05:38:23.505Z,100332.44
2024-03-12T05:41:15.871Z,100333.31
2024-03-12T05:44:01.710Z,100327.19
2024-03-12T05:46:48.373Z,100342.13
2024-03-12T05:49:15.848Z,100345.63
2024-03-12T05:51:43.392Z,100343.91
2024-03-12T05:54:10.813Z,100348.25
2024-03-12T05:56:38.977Z,100344.78
2024-03-12T05:59:08.400Z,100356.06
2024-03-12T06:01:35.871Z,100364.84
2024-03-12T06:04:04.240Z,100354.44
2024-03-12T06:06:33.464Z,100356.19
2024-03-12T06:09:00.989Z,100371.03
2024-03-12T06:11:28.704Z,100373.53
2024-03-12T06:13:55.953Z,100377.94
2024-03-12T06:16:22.971Z,100380.59
2024-03-12T06:18:50.009Z,100382.38
2024-03-12T06:21:17.483Z,100383.22
2024-03-12T06:23:45.725Z,100385.81
2024-03-12T06:26:13.032Z,100384.13
2024-03-12T06:28:41.050Z,100391.88
2024-03-12T06:31:08.145Z,100381.47
2024-03-12T06:33:36.424Z,100397.16
2024-03-12T06:36:04.115Z,100392.03
2024-03-12T06:38:31.121Z,100399.00
2024-03-12T06:40:58.174Z,100400.81
2024-03-12T06:43:25.338Z,100404.19
2024-03-12T06:45:53.804Z,100408.63
2024-03-12T06:48:21.418Z,100411.19
2024-03-12T06:50:48.418Z,100412.03
2024-03-12T06:53:16.298Z,100425.00
2024-03-12T06:55:43.417Z,100408.53
2024-03-12T06:58:13.273Z,100423.34
2024-03-12T07:00:45.856Z,100419.91
2024-03-12T07:03:15.691Z,100419.81
2024-03-12T07:05:46.636Z,100428.56
2024-03-12T07:08:15.706Z,100422.47
2024-03-12T07:10:42.999Z,100431.97
2024-03-12T07:13:11.037Z,100438.94
2024-03-12T07:15:41.734Z,100438.94
2024-03-12T07:18:09.363Z,100447.69
2024-03-12T07:20:36.875Z,100438.16
2024-03-12T07:23:05.694Z,100438.09
2024-03-12T07:25:33.284Z,100454.63
2024-03-12T07:28:07.745Z,100459.06
2024-03-12T07:30:36.627Z,100444.19
2024-03-12T07:33:04.692Z,100462.47
2024-03-12T07:35:35.576Z,100455.53
2024-03-12T07:38:04.213Z,100453.78
2024-03-12T07:40:31.919Z,100462.44
2024-03-12T07:43:00.340Z,100456.34
2024-03-12T07:45:28.376Z,100467.66
2024-03-12T07:47:57.292Z,100452.03
2024-03-12T07:50:29.612Z,100466.88
2024-03-12T07:52:56.992Z,100461.63
2024-03-12T07:55:25.334Z,100466.78
2024-03-12T07:57:52.473Z,100471.91
2024-03-12T08:00:20.586Z,100464.97
2024-03-12T08:02:48.037Z,100466.75
2024-03-12T08:05:15.194Z,100477.88
2024-03-12T08:07:45.697Z,100484.00
2024-03-12T08:10:13.520Z,100484.84
2024-03-12T08:12:41.433Z,100481.34
2024-03-12T08:15:10.651Z,100490.06
2024-03-12T08:17:39.532Z,100485.69
2024-03-12T08:20:11.762Z,100494.38
2024-03-12T08:22:42.098Z,100483.94
2024-03-12T08:25:12.313Z,100498.72
2024-03-12T08:27:42.262Z,100489.13
2024-03-12T08:30:13.397Z,100493.50
2024-03-12T08:32:42.967Z,100491.69
2024-03-12T08:35:11.519Z,100496.09
2024-03-12T08:37:41.641Z,100493.44
2024-03-12T08:40:09.464Z,100477.75
2024-03-12T08:42:44.680Z,100486.41
2024-03-12T08:45:21.272Z,100478.63
2024-03-12T08:47:50.380Z,100487.25
2024-03-12T08:50:18.258Z,100484.63
2024-03-12T08:52:45.590Z,100487.97
2024-03-12T08:55:12.734Z,100493.16
2024-03-12T08:57:39.983Z,100488.69
2024-03-12T09:00:12.468Z,100494.81
2024-03-12T09:02:43.342Z,100491.31
2024-03-12T09:05:10.988Z,100484.34
2024-03-12T09:07:38.487Z,100499.09
2024-03-12T09:10:14.399Z,100490.38
2024-03-12T09:12:44.665Z,100502.31
2024-03-12T09:15:11.801Z,100506.50
2024-03-12T09:17:40.035Z,100513.53
2024-03-12T09:20:11.598Z,100515.22
2024-03-12T09:22:40.352Z,100514.41
2024-03-12T09:25:09.577Z,100502.09
2024-03-12T09:27:36.950Z,100518.50
2024-03-12T09:30:06.677Z,100513.97
2024-03-12T09:32:34.882Z,100510.28
2024-03-12T09:35:05.066Z,100517.22
2024-03-12T09:37:33.351Z,100519.66
2024-03-12T09:40:01.975Z,100516.97
2024-03-12T09:42:29.745Z,100524.69
2024-03-12T09:45:09.570Z,100530.66
2024-03-12T09:47:37.969Z,100512.22
2024-03-12T09:50:12.467Z,100511.19
2024-03-12T09:52:44.484Z,100531.19
2024-03-12T09:55:12.382Z,100535.47
2024-03-12T09:57:39.841Z,100530.16
2024-03-12T10:00:13.102Z,100524.78
2024-03-12T10:02:40.436Z,100530.81
2024-03-12T10:05:09.174Z,100524.84
2024-03-12T10:07:37.712Z,100536.22
2024-03-12T10:10:08.443Z,100541.41
2024-03-12T10:12:36.769Z,100546.75
2024-03-12T10:15:08.874Z,100546.91
2024-03-12T10:17:36.099Z,100548.75
2024-03-12T10:20:16.819Z,100544.41
2024-03-12T10:22:45.317Z,100548.81
2024-03-12T10:25:13.113Z,100548.81
2024-03-12T10:28:06.675Z,100552.22
2024-03-12T10:30:38.892Z,100549.78
2024-03-12T10:33:14.462Z,100547.91
2024-03-12T10:35:48.254Z,100553.09
2024-03-12T10:38:26.927Z,100547.78
2024-03-12T10:40:58.239Z,100553.16
2024-03-12T10:43:25.843Z,100554.00
2024-03-12T10:45:55.361Z,100561.13
2024-03-12T10:48:23.004Z,100564.66
2024-03-12T10:50:50.475Z,100568.25
2024-03-12T10:53:19.158Z,100566.59
2024-03-12T11:01:16.366Z,100577.16
2024-03-12T11:03:48.234Z,100570.25
2024-03-12T11:06:16.432Z,100562.44
2024-03-12T11:08:47.399Z,100575.63
2024-03-12T11:11:20.986Z,100571.28
2024-03-12T11:13:50.569Z,100564.47
2024-03-12T11:16:20.354Z,100557.56
2024-03-12T11:18:50.909Z,100579.34
2024-03-12T11:21:31.733Z,100561.22
2024-03-12T11:23:59.822Z,100557.63
2024-03-12T11:26:36.937Z,100569.81
2024-03-12T11:29:04.372Z,100566.22
2024-03-12T11:31:40.726Z,100571.47
2024-03-12T11:34:08.891Z,100558.38
2024-03-12T11:36:47.994Z,100577.34
2024-03-12T11:39:30.962Z,100565.13
2024-03-12T11:42:01.716Z,100580.69
2024-03-12T11:44:54.814Z,100579.81
2024-03-12T11:47:37.823Z,100571.91
2024-03-12T11:50:26.370Z,100572.03
2024-03-12T11:52:53.455Z,100568.56
2024-03-12T11:56:11.615Z,100578.13
2024-03-12T11:58:48.696Z,100565.06
2024-03-12T12:01:32.250Z,100570.25
2024-03-12T12:04:06.401Z,100568.56
2024-03-12T12:06:34.426Z,100577.22
2024-03-12T12:09:10.324Z,100583.41
2024-03-12T12:11:39.881Z,100578.28
2024-03-12T12:14:09.584Z,100576.59
2024-03-12T12:16:37.687Z,100564.41
2024-03-12T12:19:21.974Z,100569.66
2024-03-12T12:21:53.586Z,100567.19
2024-03-12T12:24:28.036Z,100587.94
2024-03-12T12:26:57.369Z,100588.81
2024-03-12T12:29:30.594Z,100600.25
2024-03-12T12:31:59.318Z,100588.81
2024-03-12T12:34:29.626Z,100587.88
2024-03-12T12:36:57.497Z,100584.41
2024-03-12T12:39:32.928Z,100595.81
2024-03-12T12:42:11.275Z,100596.56
2024-03-12T12:44:38.417Z,100592.19
2024-03-12T12:47:06.439Z,100588.56
2024-03-12T12:49:36.621Z,100591.84
2024-03-12T12:52:06.128Z,100589.97
2024-03-12T12:54:34.832Z,100584.56
2024-03-12T12:57:06.246Z,100585.47
2024-03-12T12:59:36.501Z,100588.88
2024-03-12T13:02:20.158Z,100590.69
2024-03-12T13:04:47.583Z,100584.38
2024-03-12T13:07:31.541Z,100590.44
2024-03-12T13:10:18.788Z,100582.56
2024-03-12T13:12:49.088Z,100583.41
2024-03-12T13:15:27.297Z,100583.38
2024-03-12T13:17:55.069Z,100585.94
2024-03-12T13:20:23.122Z,100587.75
2024-03-12T13:22:51.782Z,100582.59
2024-03-12T13:25:21.987Z,100587.84
2024-03-12T13:27:50.680Z,100597.56
2024-03-12T13:30:25.606Z,100597.66
2024-03-12T13:32:56.108Z,100599.47
2024-03-12T13:35:23.850Z,100603.81
2024-03-12T13:37:51.180Z,100606.50
2024-03-12T13:40:19.040Z,100602.22
2024-03-12T13:42:46.503Z,100607.53
2024-03-12T13:45:14.400Z,100604.28
2024-03-12T13:47:42.372Z,100609.47
2024-03-12T13:50:10.396Z,100603.44
2024-03-12T13:52:37.528Z,100612.41
2024-03-12T13:55:06.177Z,100615.81
2024-03-12T13:57:36.658Z,100613.19
2024-03-12T14:00:09.525Z,100608.81
2024-03-12T14:02:41.255Z,100616.69
2024-03-12T14:05:10.114Z,100617.53
2024-03-12T14:07:37.390Z,100618.44
2024-03-12T14:10:12.488Z,100614.16
2024-03-12T14:12:39.834Z,100613.31
2024-03-12T14:15:07.580Z,100609.78
2024-03-12T14:17:34.875Z,100613.31
2024-03-12T14:20:06.908Z,100622.19
2024-03-12T14:22:34.289Z,100621.25
2024-03-12T14:25:02.041Z,100620.34
2024-03-12T14:30:04.228Z,100623.94
2024-03-12T14:32:31.684Z,100631.81
2024-03-12T14:34:58.972Z,100620.41
2024-03-12T14:37:26.201Z,100623.94
2024-03-12T14:39:54.196Z,100623.97
2024-03-12T14:42:24.713Z,100624.81
2024-03-12T14:44:51.796Z,100620.63
2024-03-12T14:47:21.041Z,100625.06
2024-03-12T14:49:49.464Z,100629.44
2024-03-12T14:52:17.771Z,100627.69
2024-03-12T14:54:45.185Z,100643.41
2024-03-12T14:57:12.397Z,100641.72
2024-03-12T14:59:40.499Z,100646.06
2024-03-12T15:02:08.463Z,100645.19
2024-03-12T15:04:36.739Z,100638.97
2024-03-12T15:07:04.390Z,100632.88
2024-03-12T15:09:33.613Z,100635.50
2024-03-12T15:12:00.850Z,100633.66
2024-03-12T15:14:29.056Z,100630.13
2024-03-12T15:16:57.563Z,100631.88
2024-03-12T15:19:25.818Z,100624.81
2024-03-12T15:21:54.776Z,100624.81
2024-03-12T15:24:22.962Z,100619.56
2024-03-12T15:26:50.202Z,100619.66
2024-03-12T15:29:21.265Z,100617.78
2024-03-12T15:31:51.126Z,100625.59
2024-03-12T15:34:19.313Z,100618.69
2024-03-12T15:36:48.743Z,100617.78
2024-03-12T15:39:16.154Z,100614.25
2024-03-12T15:41:43.651Z,100607.22
2024-03-12T15:44:12.768Z,100607.94
2024-03-12T15:46:42.928Z,100601.00
2024-03-12T15:49:11.165Z,100603.53
2024-03-12T15:51:40.662Z,100607.03
2024-03-12T15:54:13.465Z,100609.66
2024-03-12T15:56:45.414Z,100601.78
2024-03-12T15:59:15.621Z,100603.50
2024-03-12T16:01:44.783Z,100607.94
2024-03-12T16:04:14.656Z,100605.38
2024-03-12T16:06:43.358Z,100614.25
2024-03-12T16:09:18.156Z,100609.00
2024-03-12T16:11:45.496Z,100606.44
2024-03-12T16:14:13.711Z,100599.53
2024-03-12T16:16:41.338Z,100596.78
2024-03-12T16:19:08.700Z,100603.81
2024-03-12T16:21:36.095Z,100603.94
2024-03-12T16:24:05.759Z,100609.25
2024-03-12T16:26:33.055Z,100605.75
2024-03-12T16:29:01.064Z,100611.09
2024-03-12T16:31:28.187Z,100606.63
2024-03-12T16:33:55.793Z,100611.00
2024-03-12T16:36:23.182Z,100608.31
2024-03-12T16:38:50.749Z,100601.38
2024-03-12T16:41:18.782Z,100610.16
2024-03-12T16:43:45.863Z,100601.47
2024-03-12T16:46:13.171Z,100607.56
2024-03-12T16:48:41.562Z,100597.97
2024-03-12T16:51:09.247Z,100606.69
2024-03-12T16:53:36.914Z,100605.00
2024-03-12T16:56:04.795Z,100600.66
2024-03-12T16:58:32.394Z,100611.25
2024-03-12T17:01:00.740Z,100605.13
2024-03-12T17:03:31.270Z,100606.94
2024-03-12T17:05:58.964Z,100608.69
2024-03-12T17:08:26.857Z,100602.59
2024-03-12T17:10:54.610Z,100606.91
2024-03-12T17:16:51.931Z,100603.59
2024-03-12T17:19:21.555Z,100620.19
2024-03-12T17:21:56.836Z,100612.31
2024-03-12T17:24:30.635Z,100621.09
2024-03-12T17:27:07.890Z,100614.16
2024-03-12T17:29:38.128Z,100620.28
2024-03-12T17:32:15.274Z,100622.94
2024-03-12T17:34:45.821Z,100634.31
2024-03-12T17:37:18.658Z,100627.31
2024-03-12T17:39:50.109Z,100625.53
2024-03-12T17:42:24.726Z,100628.19
2024-03-12T17:44:54.685Z,100634.41
2024-03-12T17:47:26.116Z,100631.78
2024-03-12T17:49:58.594Z,100631.78
2024-03-12T17:52:26.326Z,100639.56
2024-03-12T17:54:56.080Z,100632.63
2024-03-12T17:57:25.584Z,100643.16
2024-03-12T17:59:55.138Z,100641.38
2024-03-12T18:02:25.311Z,100643.13
2024-03-12T18:04:53.082Z,100640.50
2024-03-12T18:07:26.770Z,100644.94
2024-03-12T18:09:58.596Z,100645.84
2024-03-12T18:12:26.083Z,100647.63
2024-03-12T18:14:55.039Z,100654.69
2024-03-12T18:17:24.673Z,100655.50
2024-03-12T18:19:51.859Z,100661.63
2024-03-12T18:22:20.471Z,100666.03
2024-03-12T18:24:47.972Z,100664.38
2024-03-12T18:27:17.996Z,100662.66
2024-03-12T18:30:08.566Z,100665.38
2024-03-12T18:32:36.104Z,100659.28
2024-03-12T18:35:03.341Z,100656.69
2024-03-12T18:37:31.826Z,100668.91
2024-03-12T18:40:03.254Z,100665.44
2024-03-12T18:42:32.514Z,100669.81
2024-03-12T18:45:00.788Z,100675.09
2024-03-12T18:47:29.489Z,100663.84
2024-03-12T18:49:57.197Z,100675.19
2024-03-12T18:52:24.936Z,100673.56
2024-03-12T18:54:55.227Z,100673.63
2024-03-12T18:57:22.974Z,100678.00
2024-03-12T18:59:50.534Z,100674.53
2024-03-12T19:02:28.021Z,100674.50
2024-03-12T19:05:05.524Z,100675.44
2024-03-12T19:07:33.408Z,100678.09
2024-03-12T19:10:02.183Z,100683.38
2024-03-12T19:12:30.722Z,100673.75
2024-03-12T19:14:58.902Z,100682.50
2024-03-12T19:17:29.903Z,100685.16
2024-03-12T19:19:57.925Z,100681.66
2024-03-12T19:22:33.043Z,100682.50
2024-03-12T19:25:14.415Z,100679.06
2024-03-12T19:27:50.511Z,100686.00
2024-03-12T19:30:22.931Z,100674.59
2024-03-12T19:32:51.634Z,100679.84
2024-03-12T19:35:20.572Z,100678.09
2024-03-12T19:37:50.439Z,100682.47
2024-03-12T19:40:18.948Z,100678.00
2024-03-12T19:42:49.270Z,100674.56
2024-03-12T19:45:20.112Z,100675.44
2024-03-12T19:47:49.187Z,100683.31
2024-03-12T19:50:23.238Z,100676.34
2024-03-12T19:53:23.190Z,100673.69
2024-03-12T19:58:43.900Z,100680.69
2024-03-12T20:01:17.159Z,100679.00
2024-03-12T20:03:49.770Z,100677.28
2024-03-12T20:06:23.885Z,100680.72
2024-03-12T20:09:01.933Z,100675.47
2024-03-12T20:11:32.720Z,100672.91
2024-03-12T20:14:05.980Z,100674.59
2024-03-12T20:16:39.134Z,100684.28
2024-03-12T20:19:33.088Z,100679.03
2024-03-12T20:22:00.867Z,100676.44
2024-03-12T20:24:34.547Z,100678.19
2024-03-12T20:27:02.920Z,100676.41
2024-03-12T20:29:39.998Z,100669.50
2024-03-12T20:32:09.005Z,100675.56
2024-03-12T20:34:42.406Z,100678.19
2024-03-12T20:37:13.344Z,100669.41
2024-03-12T20:39:41.290Z,100660.72
2024-03-12T20:42:11.642Z,100661.63
2024-03-12T20:44:43.133Z,100650.34
2024-03-12T20:47:14.562Z,100655.50
2024-03-12T20:49:50.980Z,100651.16
2024-03-12T20:52:22.038Z,100652.84
2024-03-12T20:54:54.771Z,100655.50
2024-03-12T20:57:22.088Z,100658.16
2024-03-12T20:59:49.351Z,100650.28
2024-03-12T21:02:16.668Z,100645.09
2024-03-12T21:04:44.095Z,100643.31
2024-03-12T21:07:12.050Z,100642.50
2024-03-12T21:09:39.990Z,100632.03
2024-03-12T21:12:07.549Z,100632.97
2024-03-12T21:14:36.213Z,100646.09
2024-03-12T21:17:12.676Z,100633.00
2024-03-12T21:24:58.484Z,100637.31
2024-03-12T21:27:07.282Z,100625.13
2024-03-12T21:29:35.076Z,100630.34
2024-03-12T21:32:03.029Z,100627.75
2024-03-12T21:34:30.340Z,100626.03
2024-03-12T21:36:58.333Z,100627.75
2024-03-12T21:39:27.238Z,100630.34
2024-03-12T21:41:54.768Z,100621.59
2024-03-12T21:44:22.088Z,100623.38
2024-03-12T21:46:51.598Z,100624.28
2024-03-12T21:49:19.010Z,100604.22
2024-03-12T21:51:46.507Z,100592.97
2024-03-12T21:54:14.648Z,100585.94
2024-03-12T21:56:42.531Z,100592.03
2024-03-12T21:59:09.868Z,100597.22
2024-03-12T22:01:37.342Z,100598.09
2024-03-12T22:04:05.010Z,100590.25
2024-03-12T22:06:41.839Z,100600.69
2024-03-12T22:09:12.830Z,100584.13
2024-03-12T22:11:44.296Z,100598.00
2024-03-12T22:14:14.737Z,100584.97
2024-03-12T22:16:48.536Z,100584.97
2024-03-12T22:19:18.692Z,100582.34
2024-03-12T22:21:50.697Z,100576.22
2024-03-12T22:24:24.091Z,100574.50
2024-03-12T22:26:54.535Z,100570.06
2024-03-12T22:29:41.752Z,100561.34
2024-03-12T22:32:17.870Z,100557.03
2024-03-12T22:34:46.006Z,100553.56
2024-03-12T22:37:13.089Z,100544.78
2024-03-12T22:39:43.962Z,100549.13
2024-03-12T22:42:11.918Z,100548.28
2024-03-12T22:44:39.975Z,100545.66
2024-03-12T22:47:09.139Z,100543.00
2024-03-12T22:49:44.230Z,100537.72
2024-03-12T22:52:12.607Z,100542.94
2024-03-12T22:54:43.110Z,100541.19
2024-03-12T22:57:10.636Z,100533.34
2024-03-12T22:59:38.268Z,100533.38
2024-03-12T23:02:10.592Z,100536.81
2024-03-12T23:04:38.125Z,100539.44
2024-03-12T23:07:05.511Z,100542.94
2024-03-12T23:09:33.533Z,100544.66
2024-03-12T23:12:02.074Z,100531.63
2024-03-12T23:14:30.676Z,100534.22
2024-03-12T23:17:01.008Z,100539.44
2024-03-12T23:19:34.162Z,100536.72
2024-03-12T23:22:01.248Z,100529.75
2024-03-12T23:24:29.458Z,100523.63
2024-03-12T23:26:58.678Z,100527.09
2024-03-12T23:29:25.842Z,100526.28
2024-03-12T23:31:53.879Z,100526.25
2024-03-12T23:34:22.286Z,100514.00
2024-03-12T23:36:49.543Z,100521.81
2024-03-12T23:39:18.461Z,100525.31
2024-03-12T23:41:45.447Z,100509.66
2024-03-12T23:44:14.430Z,100497.44
2024-03-12T23:46:43.134Z,100502.66
2024-03-12T23:49:10.284Z,100497.50
2024-03-12T23:51:37.388Z,100487.91
2024-03-12T23:54:07.122Z,100500.09
2024-03-12T23:56:34.060Z,100503.56
2024-03-12T23:59:01.080Z,100494.84
